createdAt,value
2018-12-06T00:00:49.183Z,3.60
2018-12-06T00:03:17.352Z,3.50
2018-12-06T00:05:45.563Z,3.60
2018-12-06T00:08:18.008Z,3.50
2018-12-06T00:10:46.279Z,3.50
2018-12-06T00:13:14.828Z,3.60
2018-12-06T00:15:43.511Z,3.60
2018-12-06T00:18:12.859Z,3.60
2018-12-06T00:20:41.061Z,3.50
2018-12-06T00:23:09.399Z,3.50
2018-12-06T00:25:38.203Z,3.50
2018-12-06T00:28:06.405Z,3.50
2018-12-06T00:30:41.303Z,3.50
2018-12-06T00:33:09.836Z,3.50
2018-12-06T00:35:38.811Z,3.50
2018-12-06T00:38:07.027Z,3.50
2018-12-06T00:40:36.441Z,3.50
2018-12-06T00:43:05.357Z,3.50
2018-12-06T00:45:34.973Z,3.50
2018-12-06T00:48:03.088Z,3.50
2018-12-06T00:50:31.315Z,3.60
2018-12-06T00:52:59.763Z,3.60
2018-12-06T00:55:27.840Z,3.60
2018-12-06T00:57:56.099Z,3.60
2018-12-06T01:00:24.423Z,3.60
2018-12-06T01:02:52.864Z,3.60
2018-12-06T01:05:21.704Z,3.60
2018-12-06T01:07:50.904Z,3.60
2018-12-06T01:10:19.180Z,3.70
2018-12-06T01:12:47.535Z,3.60
2018-12-06T01:15:16.031Z,3.70
2018-12-06T01:17:44.419Z,3.70
2018-12-06T01:20:13.361Z,3.70
2018-12-06T01:22:43.011Z,3.70
2018-12-06T01:25:11.295Z,3.70
2018-12-06T01:27:39.954Z,3.70
2018-12-06T01:30:08.627Z,3.80
2018-12-06T01:32:36.774Z,3.80
2018-12-06T01:35:06.591Z,3.80
2018-12-06T01:37:34.879Z,3.80
2018-12-06T01:40:03.380Z,3.80
2018-12-06T01:42:32.018Z,3.80
2018-12-06T01:45:00.416Z,3.80
2018-12-06T01:47:28.675Z,3.80
2018-12-06T01:49:56.762Z,3.80
2018-12-06T01:52:25.175Z,3.80
2018-12-06T01:54:53.872Z,3.80
2018-12-06T01:57:23.231Z,3.70
2018-12-06T01:59:51.371Z,3.70
2018-12-06T02:02:20.376Z,3.70
2018-12-06T02:04:49.397Z,3.70
2018-12-06T02:07:17.503Z,3.70
2018-12-06T02:09:46.575Z,3.70
2018-12-06T02:12:15.839Z,3.70
2018-12-06T02:14:44.039Z,3.70
2018-12-06T02:17:13.227Z,3.60
2018-12-06T02:20:45.096Z,3.60
2018-12-06T02:23:14.219Z,3.60
2018-12-06T02:25:43.500Z,3.70
2018-12-06T02:28:12.467Z,3.70
2018-12-06T02:30:41.127Z,3.70
2018-12-06T02:33:09.248Z,3.70
2018-12-06T02:35:37.640Z,3.70
2018-12-06T02:38:06.024Z,3.70
2018-12-06T02:40:34.281Z,3.70
2018-12-06T02:43:02.552Z,3.70
2018-12-06T02:45:30.719Z,3.70
2018-12-06T02:47:59.419Z,3.70
2018-12-06T02:50:29.028Z,3.70
2018-12-06T02:52:57.097Z,3.70
2018-12-06T02:55:25.260Z,3.70
2018-12-06T02:57:53.419Z,3.70
2018-12-06T03:00:21.956Z,3.70
2018-12-06T03:02:50.204Z,3.70
2018-12-06T03:05:19.129Z,3.70
2018-12-06T03:07:48.294Z,3.70
2018-12-06T03:10:16.704Z,3.70
2018-12-06T03:12:44.862Z,3.70
2018-12-06T03:15:13.255Z,3.70
2018-12-06T03:17:42.164Z,3.70
2018-12-06T03:20:10.712Z,3.70
2018-12-06T03:22:39.087Z,3.70
2018-12-06T03:25:07.417Z,3.60
2018-12-06T03:27:35.689Z,3.60
2018-12-06T03:30:04.881Z,3.60
2018-12-06T03:32:33.082Z,3.60
2018-12-06T03:35:01.445Z,3.50
2018-12-06T03:37:29.896Z,3.50
2018-12-06T03:39:58.641Z,3.40
2018-12-06T03:42:26.933Z,3.40
2018-12-06T03:44:55.211Z,3.30
2018-12-06T03:47:23.470Z,3.30
2018-12-06T03:49:51.779Z,3.30
2018-12-06T03:52:20.176Z,3.30
2018-12-06T03:54:48.859Z,3.30
2018-12-06T03:57:17.635Z,3.30
2018-12-06T03:59:45.784Z,3.30
2018-12-06T04:02:14.046Z,3.30
2018-12-06T04:04:43.166Z,3.30
2018-12-06T04:07:11.676Z,3.30
2018-12-06T04:09:39.779Z,3.30
2018-12-06T04:12:08.329Z,3.30
2018-12-06T04:14:36.611Z,3.30
2018-12-06T04:17:05.225Z,3.30
2018-12-06T04:19:33.456Z,3.30
2018-12-06T04:22:04.180Z,3.30
2018-12-06T04:24:32.735Z,3.30
2018-12-06T04:27:01.278Z,3.30
2018-12-06T04:29:29.804Z,3.30
2018-12-06T04:31:57.973Z,3.30
2018-12-06T04:34:26.917Z,3.40
2018-12-06T04:36:55.157Z,3.30
2018-12-06T04:39:23.851Z,3.40
2018-12-06T04:41:52.709Z,3.40
2018-12-06T04:44:20.892Z,3.40
2018-12-06T04:50:20.848Z,3.40
2018-12-06T04:52:49.240Z,3.40
2018-12-06T04:55:18.985Z,3.40
2018-12-06T04:57:47.332Z,3.40
2018-12-06T05:00:15.698Z,3.40
2018-12-06T05:02:44.865Z,3.40
2018-12-06T05:05:13.280Z,3.40
2018-12-06T05:07:43.158Z,3.50
2018-12-06T05:10:11.375Z,3.50
2018-12-06T05:12:39.615Z,3.50
2018-12-06T05:15:08.015Z,3.50
2018-12-06T05:17:36.475Z,3.50
2018-12-06T05:20:05.432Z,3.50
2018-12-06T05:22:33.955Z,3.50
2018-12-06T05:25:02.799Z,3.50
2018-12-06T05:27:31.560Z,3.60
2018-12-06T05:30:00.547Z,3.60
2018-12-06T05:32:28.846Z,3.60
2018-12-06T05:34:57.132Z,3.60
2018-12-06T05:37:25.500Z,3.60
2018-12-06T05:39:55.283Z,3.60
2018-12-06T05:42:24.312Z,3.70
2018-12-06T05:44:52.548Z,3.70
2018-12-06T05:47:21.548Z,3.70
2018-12-06T05:49:49.644Z,3.70
2018-12-06T05:52:17.851Z,3.70
2018-12-06T05:54:46.187Z,3.80
2018-12-06T05:57:15.068Z,3.80
2018-12-06T05:59:44.147Z,3.80
2018-12-06T06:02:12.327Z,3.80
2018-12-06T06:04:41.668Z,3.80
2018-12-06T06:07:09.938Z,3.80
2018-12-06T06:09:40.643Z,3.90
2018-12-06T06:12:09.160Z,3.90
2018-12-06T06:14:37.423Z,3.90
2018-12-06T06:17:05.788Z,3.90
2018-12-06T06:19:35.131Z,3.90
2018-12-06T06:22:03.431Z,3.90
2018-12-06T06:24:32.728Z,3.90
2018-12-06T06:27:00.976Z,3.90
2018-12-06T06:29:29.284Z,3.90
2018-12-06T06:31:57.755Z,3.90
2018-12-06T06:34:25.946Z,4.00
2018-12-06T06:36:54.239Z,4.00
2018-12-06T06:39:22.956Z,4.00
2018-12-06T06:41:53.516Z,4.00
2018-12-06T06:44:21.808Z,4.10
2018-12-06T06:46:49.992Z,4.10
2018-12-06T06:49:18.776Z,4.10
2018-12-06T06:51:47.041Z,4.10
2018-12-06T06:54:16.203Z,4.10
2018-12-06T06:56:44.747Z,4.10
2018-12-06T06:59:13.560Z,4.10
2018-12-06T07:01:41.685Z,4.10
2018-12-06T07:04:10.632Z,4.10
2018-12-06T07:06:38.935Z,4.10
2018-12-06T07:09:08.272Z,4.10
2018-12-06T07:11:36.703Z,4.20
2018-12-06T07:14:06.187Z,4.20
2018-12-06T07:16:34.684Z,4.20
2018-12-06T07:19:03.287Z,4.20
2018-12-06T07:21:31.666Z,4.20
2018-12-06T07:23:59.862Z,4.20
2018-12-06T07:26:28.420Z,4.30
2018-12-06T07:28:57.265Z,4.20
2018-12-06T07:31:25.504Z,4.20
2018-12-06T07:33:53.747Z,4.30
2018-12-06T07:36:22.079Z,4.20
2018-12-06T07:38:50.568Z,4.30
2018-12-06T07:41:18.748Z,4.30
2018-12-06T07:43:49.149Z,4.30
2018-12-06T07:46:18.363Z,4.30
2018-12-06T07:48:46.513Z,4.30
2018-12-06T07:51:14.832Z,4.40
2018-12-06T07:53:43.500Z,4.30
2018-12-06T07:56:11.715Z,4.40
2018-12-06T07:58:42.464Z,4.40
2018-12-06T08:01:12.044Z,4.40
2018-12-06T08:03:40.464Z,4.40
2018-12-06T08:06:09.571Z,4.50
2018-12-06T08:08:37.791Z,4.50
2018-12-06T08:11:07.342Z,4.50
2018-12-06T08:13:35.967Z,4.60
2018-12-06T08:16:04.296Z,4.60
2018-12-06T08:18:33.363Z,4.70
2018-12-06T08:21:03.468Z,4.70
2018-12-06T08:23:31.607Z,4.70
2018-12-06T08:26:00.903Z,4.80
2018-12-06T08:28:29.135Z,4.90
2018-12-06T08:30:59.305Z,4.90
2018-12-06T08:33:27.769Z,4.90
2018-12-06T08:35:57.160Z,4.90
2018-12-06T08:38:26.116Z,5.00
2018-12-06T08:40:54.316Z,5.10
2018-12-06T08:43:22.629Z,5.20
2018-12-06T08:45:51.789Z,5.20
2018-12-06T08:48:21.091Z,5.30
2018-12-06T08:50:49.711Z,5.30
2018-12-06T08:53:18.350Z,5.30
2018-12-06T08:55:47.304Z,5.40
2018-12-06T08:58:16.331Z,5.40
2018-12-06T09:00:44.935Z,5.40
2018-12-06T09:03:13.536Z,5.50
2018-12-06T09:05:43.118Z,5.50
2018-12-06T09:08:11.452Z,5.60
2018-12-06T09:10:40.736Z,5.60
2018-12-06T09:13:09.039Z,5.70
2018-12-06T09:15:37.833Z,5.70
2018-12-06T09:18:06.404Z,5.70
2018-12-06T09:20:35.016Z,5.80
2018-12-06T09:23:03.772Z,5.80
2018-12-06T09:25:33.056Z,5.80
2018-12-06T09:28:01.743Z,5.90
2018-12-06T09:30:31.435Z,5.90
2018-12-06T09:32:59.707Z,6.00
2018-12-06T09:35:27.872Z,6.00
2018-12-06T09:37:56.587Z,6.00
2018-12-06T09:40:24.915Z,6.00
2018-12-06T09:42:53.023Z,6.10
2018-12-06T09:45:22.175Z,6.10
2018-12-06T09:47:50.441Z,6.20
2018-12-06T09:50:18.687Z,6.20
2018-12-06T09:52:47.688Z,6.20
2018-12-06T09:55:15.919Z,6.30
2018-12-06T09:57:44.228Z,6.30
2018-12-06T10:00:15.379Z,6.30
2018-12-06T10:02:43.772Z,6.40
2018-12-06T10:05:12.331Z,6.40
2018-12-06T10:07:41.218Z,6.40
2018-12-06T10:10:09.741Z,6.40
2018-12-06T10:12:38.005Z,6.50
2018-12-06T10:15:06.884Z,6.40
2018-12-06T10:18:38.368Z,6.50
2018-12-06T10:21:07.068Z,6.50
2018-12-06T10:23:35.431Z,6.50
2018-12-06T10:26:03.761Z,6.50
2018-12-06T10:28:32.056Z,6.50
2018-12-06T10:31:00.712Z,6.60
2018-12-06T10:33:28.981Z,6.60
2018-12-06T10:35:57.719Z,6.60
2018-12-06T10:38:25.879Z,6.60
2018-12-06T10:40:54.305Z,6.60
2018-12-06T10:43:22.468Z,6.60
2018-12-06T10:45:51.588Z,6.60
2018-12-06T10:48:19.851Z,6.70
2018-12-06T10:50:48.294Z,6.70
2018-12-06T10:53:16.960Z,6.70
2018-12-06T10:55:45.295Z,6.80
2018-12-06T10:58:13.532Z,6.80
2018-12-06T11:00:47.189Z,6.80
2018-12-06T11:03:21.449Z,6.80
2018-12-06T11:05:50.210Z,6.90
2018-12-06T11:08:18.489Z,6.90
2018-12-06T11:10:46.998Z,6.90
2018-12-06T11:13:15.098Z,6.90
2018-12-06T11:15:43.351Z,6.90
2018-12-06T11:18:11.447Z,6.90
2018-12-06T11:20:40.098Z,6.90
2018-12-06T11:23:08.268Z,7.00
2018-12-06T11:25:36.595Z,7.00
2018-12-06T11:28:04.943Z,7.00
2018-12-06T11:30:33.931Z,7.10
2018-12-06T11:33:02.155Z,7.10
2018-12-06T11:35:30.435Z,7.10
2018-12-06T11:37:59.220Z,7.10
2018-12-06T11:40:29.004Z,7.10
2018-12-06T11:42:57.735Z,7.10
2018-12-06T11:45:25.817Z,7.20
2018-12-06T11:47:54.023Z,7.20
2018-12-06T11:50:22.308Z,7.20
2018-12-06T11:52:50.955Z,7.20
2018-12-06T11:55:19.723Z,7.20
2018-12-06T11:57:48.209Z,7.20
2018-12-06T12:00:16.703Z,7.20
2018-12-06T12:02:45.375Z,7.20
2018-12-06T12:05:13.704Z,7.20
2018-12-06T12:07:42.143Z,7.20
2018-12-06T12:10:10.591Z,7.30
2018-12-06T12:12:39.312Z,7.30
2018-12-06T12:15:08.785Z,7.30
2018-12-06T12:17:37.572Z,7.30
2018-12-06T12:20:06.611Z,7.30
2018-12-06T12:22:36.343Z,7.30
2018-12-06T12:25:05.688Z,7.40
2018-12-06T12:27:34.861Z,7.40
2018-12-06T12:30:04.167Z,7.40
2018-12-06T12:32:32.423Z,7.40
2018-12-06T12:35:02.775Z,7.40
2018-12-06T12:37:31.664Z,7.40
2018-12-06T12:40:00.243Z,7.50
2018-12-06T12:42:30.108Z,7.50
2018-12-06T12:44:58.607Z,7.50
2018-12-06T12:47:26.686Z,7.50
2018-12-06T12:49:54.831Z,7.60
2018-12-06T12:52:23.497Z,7.60
2018-12-06T12:54:51.756Z,7.60
2018-12-06T12:57:20.803Z,7.60
2018-12-06T12:59:49.307Z,7.70
2018-12-06T13:02:17.655Z,7.70
2018-12-06T13:04:45.919Z,7.80
2018-12-06T13:07:14.727Z,7.80
2018-12-06T13:09:43.364Z,7.80
2018-12-06T13:12:12.749Z,7.80
2018-12-06T13:14:41.707Z,7.80
2018-12-06T13:17:10.804Z,7.90
2018-12-06T13:19:38.955Z,7.90
2018-12-06T13:22:09.270Z,7.90
2018-12-06T13:24:39.322Z,7.90
2018-12-06T13:27:08.741Z,8.00
2018-12-06T13:29:38.536Z,8.00
2018-12-06T13:32:07.968Z,8.00
2018-12-06T13:34:37.834Z,8.00
2018-12-06T13:37:06.461Z,8.00
2018-12-06T13:39:36.712Z,8.10
2018-12-06T13:42:04.983Z,8.10
2018-12-06T13:44:33.169Z,8.10
2018-12-06T13:47:01.443Z,8.20
2018-12-06T13:49:30.479Z,8.20
2018-12-06T13:52:02.076Z,8.20
2018-12-06T13:54:30.170Z,8.30
2018-12-06T13:57:00.000Z,8.30
2018-12-06T13:59:29.016Z,8.30
2018-12-06T14:01:57.092Z,8.40
2018-12-06T14:04:25.904Z,8.40
2018-12-06T14:06:54.375Z,8.40
2018-12-06T14:09:23.590Z,8.40
2018-12-06T14:11:52.155Z,8.50
2018-12-06T14:14:20.348Z,8.50
2018-12-06T14:16:48.439Z,8.50
2018-12-06T14:19:17.663Z,8.50
2018-12-06T14:21:45.740Z,8.60
2018-12-06T14:24:14.664Z,8.60
2018-12-06T14:26:42.915Z,8.60
2018-12-06T14:29:11.256Z,8.60
2018-12-06T14:31:39.600Z,8.70
2018-12-06T14:34:08.651Z,8.70
2018-12-06T14:36:37.300Z,8.70
2018-12-06T14:39:09.330Z,8.70
